createdAt,value
2023-03-06T00:01:18.758Z,99860.19
2023-03-06T00:03:50.128Z,99840.13
2023-03-06T00:06:22.025Z,99858.47
2023-03-06T00:08:54.196Z,99852.38
2023-03-06T00:11:25.548Z,99849.75
2023-03-06T00:13:56.924Z,99830.53
2023-03-06T00:16:28.488Z,99848.03
2023-03-06T00:18:59.844Z,99851.53
2023-03-06T00:21:31.091Z,99861.13
2023-03-06T00:24:02.461Z,99867.25
2023-03-06T00:26:35.546Z,99862.88
2023-03-06T00:29:07.858Z,99870.72
2023-03-06T00:31:39.238Z,99861.09
2023-03-06T00:34:10.577Z,99862.84
2023-03-06T00:36:41.958Z,99862.00
2023-03-06T00:39:13.288Z,99862.88
2023-03-06T00:41:46.911Z,99859.38
2023-03-06T00:44:18.391Z,99860.25
2023-03-06T00:46:49.728Z,99861.13
2023-03-06T00:49:20.984Z,99863.75
2023-03-06T00:51:52.511Z,99860.28
2023-03-06T00:54:23.779Z,99862.88
2023-03-06T00:56:55.305Z,99861.13
2023-03-06T00:59:27.636Z,99863.72
2023-03-06T01:01:59.223Z,99857.59
2023-03-06T01:04:30.817Z,99848.88
2023-03-06T01:07:02.347Z,99824.44
2023-03-06T01:09:33.650Z,99843.66
2023-03-06T01:12:05.103Z,99839.31
2023-03-06T01:14:36.522Z,99850.66
2023-03-06T01:17:07.804Z,99847.16
2023-03-06T01:19:39.117Z,99844.56
2023-03-06T01:22:11.426Z,99843.66
2023-03-06T01:24:42.735Z,99826.19
2023-03-06T01:27:14.439Z,99820.97
2023-03-06T01:29:45.724Z,99846.31
2023-03-06T01:32:17.035Z,99841.06
2023-03-06T01:34:48.518Z,99839.34
2023-03-06T01:37:19.919Z,99812.25
2023-03-06T01:39:51.270Z,99838.47
2023-03-06T01:42:22.673Z,99836.75
2023-03-06T01:45:04.008Z,99835.88
2023-03-06T01:47:35.403Z,99835.84
2023-03-06T01:50:10.404Z,99834.09
2023-03-06T01:52:52.325Z,99830.59
2023-03-06T01:55:30.491Z,99829.72
2023-03-06T01:58:06.971Z,99789.53
2023-03-06T02:00:38.372Z,99826.25
2023-03-06T02:03:13.897Z,99814.06
2023-03-06T02:05:45.508Z,99808.81
2023-03-06T02:08:19.572Z,99815.81
2023-03-06T02:11:13.868Z,99814.94
2023-03-06T02:13:46.721Z,99797.47
2023-03-06T02:16:22.134Z,99809.75
2023-03-06T02:18:53.796Z,99808.88
2023-03-06T02:21:36.198Z,99803.59
2023-03-06T02:24:20.732Z,99816.69
2023-03-06T02:26:53.128Z,99800.97
2023-03-06T02:29:28.407Z,99801.88
2023-03-06T02:31:59.808Z,99789.63
2023-03-06T02:34:36.989Z,99801.88
2023-03-06T02:37:10.762Z,99807.09
2023-03-06T02:39:46.803Z,99798.38
2023-03-06T02:42:20.716Z,99789.66
2023-03-06T02:44:53.946Z,99797.50
2023-03-06T02:47:25.468Z,99793.16
2023-03-06T02:49:56.743Z,99794.03
2023-03-06T02:52:28.220Z,99788.78
2023-03-06T02:54:59.470Z,99779.19
2023-03-06T02:57:30.730Z,99779.19
2023-03-06T03:00:02.014Z,99743.41
2023-03-06T03:02:33.375Z,99767.84
2023-03-06T03:05:05.094Z,99750.41
2023-03-06T03:07:36.607Z,99775.72
2023-03-06T03:10:08.676Z,99766.13
2023-03-06T03:12:40.654Z,99746.03
2023-03-06T03:15:12.009Z,99761.75
2023-03-06T03:17:43.301Z,99760.00
2023-03-06T03:20:18.485Z,99760.88
2023-03-06T03:22:54.959Z,99752.16
2023-03-06T03:25:26.443Z,99752.16
2023-03-06T03:27:57.705Z,99747.78
2023-03-06T03:30:29.037Z,99750.41
2023-03-06T03:33:00.333Z,99752.16
2023-03-06T03:35:31.821Z,99743.44
2023-03-06T03:38:03.295Z,99739.06
2023-03-06T03:40:34.564Z,99746.91
2023-03-06T03:43:05.821Z,99713.78
2023-03-06T03:45:37.086Z,99733.84
2023-03-06T03:48:08.390Z,99739.09
2023-03-06T03:50:39.675Z,99736.47
2023-03-06T03:53:10.985Z,99728.63
2023-03-06T03:55:42.435Z,99731.25
2023-03-06T03:58:13.711Z,99714.66
2023-03-06T04:00:45.616Z,99717.28
2023-03-06T04:03:16.951Z,99731.25
2023-03-06T04:05:48.227Z,99726.88
2023-03-06T04:08:20.333Z,99728.59
2023-03-06T04:10:52.679Z,99731.22
2023-03-06T04:13:24.198Z,99720.72
2023-03-06T04:15:56.246Z,99714.63
2023-03-06T04:18:28.408Z,99722.47
2023-03-06T04:20:59.777Z,99650.94
2023-03-06T04:23:31.428Z,99706.78
2023-03-06T04:26:03.302Z,99686.69
2023-03-06T04:28:34.567Z,99699.81
2023-03-06T04:31:05.975Z,99686.72
2023-03-06T04:33:37.243Z,99678.88
2023-03-06T04:36:24.219Z,99683.22
2023-03-06T04:38:55.476Z,99708.53
2023-03-06T04:41:26.800Z,99700.66
2023-03-06T04:43:58.112Z,99693.69
2023-03-06T04:46:29.477Z,99703.28
2023-03-06T04:49:00.893Z,99703.28
2023-03-06T04:51:32.412Z,99691.03
2023-03-06T04:54:04.585Z,99687.56
2023-03-06T04:56:35.865Z,99697.16
2023-03-06T04:59:07.509Z,99657.91
2023-03-06T05:01:38.854Z,99691.94
2023-03-06T05:04:10.154Z,99682.34
2023-03-06T05:06:41.457Z,99658.78
2023-03-06T05:09:12.848Z,99684.09
2023-03-06T05:11:44.194Z,99683.22
2023-03-06T05:14:15.491Z,99687.59
2023-03-06T05:16:46.887Z,99670.16
2023-03-06T05:19:18.287Z,99684.13
2023-03-06T05:21:49.811Z,99661.44
2023-03-06T05:24:21.075Z,99683.25
2023-03-06T05:26:52.416Z,99660.56
2023-03-06T05:29:23.735Z,99668.41
2023-03-06T05:31:55.223Z,99672.78
2023-03-06T05:34:26.625Z,99668.41
2023-03-06T05:36:57.986Z,99661.44
2023-03-06T05:39:30.139Z,99677.16
2023-03-06T05:42:01.416Z,99682.38
2023-03-06T05:44:34.196Z,99667.56
2023-03-06T05:47:05.628Z,99669.31
2023-03-06T05:49:36.881Z,99663.19
2023-03-06T05:52:08.665Z,99657.97
2023-03-06T05:54:39.923Z,99661.47
2023-03-06T05:57:11.263Z,99647.50
2023-03-06T05:59:43.287Z,99660.56
2023-03-06T06:02:14.947Z,99647.47
2023-03-06T06:04:46.221Z,99668.41
2023-03-06T06:07:17.591Z,99670.16
2023-03-06T06:09:53.199Z,99650.97
2023-03-06T06:12:24.583Z,99673.66
2023-03-06T06:14:56.030Z,99662.31
2023-03-06T06:17:27.293Z,99657.09
2023-03-06T06:19:58.645Z,99660.56
2023-03-06T06:22:29.928Z,99671.91
2023-03-06T06:25:01.197Z,99661.47
2023-03-06T06:27:32.491Z,99668.44
2023-03-06T06:30:05.815Z,99640.53
2023-03-06T06:32:37.412Z,99651.00
2023-03-06T06:35:09.081Z,99660.59
2023-03-06T06:37:40.381Z,99661.47
2023-03-06T06:40:12.090Z,99659.72
2023-03-06T06:42:43.662Z,99658.00
2023-03-06T06:45:14.973Z,99664.09
2023-03-06T06:47:49.521Z,99652.72
2023-03-06T06:50:20.999Z,99653.59
2023-03-06T06:52:52.287Z,99665.78
2023-03-06T06:55:23.540Z,99665.78
2023-03-06T06:57:54.825Z,99642.28
2023-03-06T07:00:26.349Z,99645.78
2023-03-06T07:02:57.630Z,99647.53
2023-03-06T07:05:28.937Z,99671.03
2023-03-06T07:08:00.242Z,99665.81
2023-03-06T07:10:31.620Z,99677.13
2023-03-06T07:13:02.965Z,99651.88
2023-03-06T07:15:34.331Z,99665.84
2023-03-06T07:18:05.651Z,99670.19
2023-03-06T07:20:37.135Z,99670.19
2023-03-06T07:23:12.630Z,99666.72
2023-03-06T07:25:43.953Z,99650.13
2023-03-06T07:28:17.875Z,99656.19
2023-03-06T07:30:49.919Z,99662.31
2023-03-06T07:33:21.567Z,99645.78
2023-03-06T07:35:52.893Z,99651.84
2023-03-06T07:38:24.218Z,99681.50
2023-03-06T07:40:55.490Z,99678.00
2023-03-06T07:43:26.800Z,99681.53
2023-03-06T07:45:59.786Z,99680.66
2023-03-06T07:48:31.212Z,99648.38
2023-03-06T07:51:05.243Z,99686.78
2023-03-06T07:53:36.663Z,99689.34
2023-03-06T07:56:09.009Z,99678.00
2023-03-06T07:58:42.714Z,99658.00
2023-03-06T08:01:17.148Z,99690.22
2023-03-06T08:03:49.957Z,99673.63
2023-03-06T08:06:23.741Z,99692.81
2023-03-06T08:08:56.497Z,99697.16
2023-03-06T08:11:30.260Z,99696.28
2023-03-06T08:14:01.605Z,99687.56
2023-03-06T08:16:32.916Z,99702.38
2023-03-06T08:19:04.269Z,99698.03
2023-03-06T08:21:35.598Z,99704.97
2023-03-06T08:24:07.628Z,99675.28
2023-03-06T08:26:39.785Z,99698.84
2023-03-06T08:29:11.303Z,99699.72
2023-03-06T08:31:44.549Z,99716.28
2023-03-06T08:34:18.594Z,99711.94
2023-03-06T08:36:50.659Z,99715.47
2023-03-06T08:39:23.554Z,99721.59
2023-03-06T08:41:54.874Z,99711.13
2023-03-06T08:44:26.156Z,99715.47
2023-03-06T08:46:57.444Z,99720.69
2023-03-06T08:49:28.961Z,99715.41
2023-03-06T08:52:00.861Z,99721.50
2023-03-06T08:54:34.210Z,99720.53
2023-03-06T08:57:06.476Z,99689.03
2023-03-06T08:59:38.026Z,99692.38
2023-03-06T09:02:12.736Z,99719.34
2023-03-06T09:04:44.037Z,99703.56
2023-03-06T09:07:15.314Z,99721.78
2023-03-06T09:09:46.662Z,99724.41
2023-03-06T09:12:17.931Z,99727.03
2023-03-06T09:14:49.951Z,99723.63
2023-03-06T09:17:21.263Z,99706.22
2023-03-06T09:19:52.807Z,99725.34
2023-03-06T09:22:24.118Z,99713.81
2023-03-06T09:24:55.475Z,99731.94
2023-03-06T09:27:30.387Z,99721.22
2023-03-06T09:30:01.865Z,99735.09
2023-03-06T09:32:33.249Z,99733.34
2023-03-06T09:35:05.131Z,99734.19
2023-03-06T09:37:36.601Z,99737.56
2023-03-06T09:40:15.769Z,99733.16
2023-03-06T09:42:47.280Z,99712.25
2023-03-06T09:45:20.379Z,99737.44
2023-03-06T09:48:14.971Z,99716.56
2023-03-06T09:50:51.544Z,99715.75
2023-03-06T09:53:41.087Z,99736.66
2023-03-06T09:56:17.606Z,99731.44
2023-03-06T09:58:53.910Z,99710.59
2023-03-06T10:01:30.117Z,99730.72
2023-03-06T10:04:41.137Z,99728.16
2023-03-06T10:07:21.461Z,99721.22
2023-03-06T10:10:05.065Z,99719.34
2023-03-06T10:12:42.434Z,99716.56
2023-03-06T10:15:25.290Z,99715.09
2023-03-06T10:17:57.412Z,99708.44
2023-03-06T10:20:36.515Z,99717.28
2023-03-06T10:23:52.602Z,99709.47
2023-03-06T10:26:27.009Z,99707.63
2023-03-06T10:29:14.516Z,99710.94
2023-03-06T10:31:58.213Z,99709.84
2023-03-06T10:34:35.590Z,99699.38
2023-03-06T10:37:19.640Z,99703.53
2023-03-06T10:40:12.939Z,99686.53
2023-03-06T10:42:44.319Z,99696.03
2023-03-06T10:45:16.823Z,99675.00
2023-03-06T10:47:48.106Z,99687.00
2023-03-06T10:50:27.246Z,99693.09
2023-03-06T10:53:07.316Z,99666.41
2023-03-06T10:55:38.835Z,99693.41
2023-03-06T10:58:25.279Z,99661.13
2023-03-06T11:01:21.150Z,99680.25
2023-03-06T11:03:53.968Z,99688.41
2023-03-06T11:06:37.218Z,99692.81
2023-03-06T11:09:25.665Z,99692.34
2023-03-06T11:12:19.486Z,99690.16
2023-03-06T11:15:18.829Z,99689.53
2023-03-06T11:17:59.439Z,99687.13
2023-03-06T11:20:52.592Z,99692.56
2023-03-06T11:23:42.607Z,99684.13
2023-03-06T11:26:16.747Z,99686.09
2023-03-06T11:28:57.313Z,99678.88
2023-03-06T11:31:36.211Z,99676.56
2023-03-06T11:34:23.835Z,99675.16
2023-03-06T11:37:40.052Z,99664.97
2023-03-06T11:40:11.331Z,99679.69
2023-03-06T11:42:49.832Z,99673.84
2023-03-06T11:45:45.657Z,99674.03
2023-03-06T11:48:27.780Z,99674.06
2023-03-06T11:51:21.734Z,99662.19
2023-03-06T11:53:54.893Z,99655.91
2023-03-06T11:56:44.611Z,99669.75
2023-03-06T11:59:50.992Z,99659.59
2023-03-06T12:02:39.535Z,99654.06
2023-03-06T12:05:28.275Z,99649.72
2023-03-06T12:08:12.627Z,99654.59
2023-03-06T12:10:52.458Z,99652.28
2023-03-06T12:13:49.779Z,99651.44
2023-03-06T12:16:39.087Z,99648.66
2023-03-06T12:19:26.144Z,99644.38
2023-03-06T12:22:08.095Z,99645.22
2023-03-06T12:24:51.500Z,99642.38
2023-03-06T12:27:44.085Z,99634.81
2023-03-06T12:30:36.592Z,99655.00
2023-03-06T12:33:37.168Z,99623.16
2023-03-06T12:36:24.176Z,99641.56
2023-03-06T12:39:08.204Z,99638.31
2023-03-06T12:42:23.065Z,99641.63
2023-03-06T12:45:10.337Z,99610.38
2023-03-06T12:47:48.030Z,99638.75
2023-03-06T12:50:24.134Z,99637.28
2023-03-06T12:53:07.231Z,99626.16
2023-03-06T12:55:49.650Z,99636.56
2023-03-06T12:58:30.385Z,99636.22
2023-03-06T13:01:08.974Z,99626.16
2023-03-06T13:04:17.503Z,99620.72
2023-03-06T13:07:27.921Z,99612.81
2023-03-06T13:10:07.891Z,99583.47
2023-03-06T13:13:00.618Z,99618.41
2023-03-06T13:15:43.228Z,99598.44
2023-03-06T13:18:40.588Z,99624.41
2023-03-06T13:21:43.170Z,99621.72
2023-03-06T13:24:29.009Z,99628.56
2023-03-06T13:27:05.774Z,99625.84
2023-03-06T13:29:37.015Z,99625.78
2023-03-06T13:32:14.489Z,99603.38
2023-03-06T13:34:49.978Z,99614.22
2023-03-06T13:37:23.313Z,99623.19
2023-03-06T13:39:54.582Z,99622.41
2023-03-06T13:42:29.691Z,99620.97
2023-03-06T13:45:25.531Z,99620.22
2023-03-06T13:48:21.454Z,99616.66
2023-03-06T13:50:51.302Z,99608.56
2023-03-06T13:54:02.430Z,99594.50
2023-03-06T13:56:36.699Z,99575.97
2023-03-06T13:59:40.176Z,99601.78
2023-03-06T14:02:39.531Z,99613.84
2023-03-06T14:05:16.949Z,99601.69
2023-03-06T14:08:10.048Z,99608.53
2023-03-06T14:10:42.199Z,99556.38
2023-03-06T14:13:17.295Z,99597.00
2023-03-06T14:15:51.786Z,99599.38
2023-03-06T14:18:38.339Z,99597.31
2023-03-06T14:21:15.801Z,99589.31
2023-03-06T14:23:58.877Z,99592.03
2023-03-06T14:26:41.345Z,99586.06
2023-03-06T14:29:22.043Z,99577.81
2023-03-06T14:31:55.869Z,99587.03
2023-03-06T14:34:37.684Z,99589.69
2023-03-06T14:37:21.539Z,99586.59
2023-03-06T14:39:52.950Z,99588.56
2023-03-06T14:42:28.586Z,99564.19
2023-03-06T14:45:19.207Z,99568.16
2023-03-06T14:47:52.237Z,99572.59
2023-03-06T14:50:34.177Z,99568.16
2023-03-06T14:53:16.009Z,99568.25
2023-03-06T14:56:01.614Z,99565.63
2023-03-06T14:58:56.991Z,99566.34
2023-03-06T15:01:39.124Z,99568.06
2023-03-06T15:04:32.165Z,99560.00
2023-03-06T15:07:11.479Z,99557.53
2023-03-06T15:09:49.899Z,99561.94
2023-03-06T15:12:21.314Z,99564.41
2023-03-06T15:14:59.686Z,99561.75
2023-03-06T15:17:42.122Z,99557.53
2023-03-06T15:20:38.153Z,99557.38
2023-03-06T15:23:18.198Z,99546.97
2023-03-06T15:25:52.500Z,99553.09
2023-03-06T15:28:28.232Z,99543.50
2023-03-06T15:31:21.097Z,99545.63
2023-03-06T15:34:06.334Z,99543.19
2023-03-06T15:36:47.262Z,99540.75
2023-03-06T15:39:33.808Z,99541.91
2023-03-06T15:42:19.347Z,99537.78
2023-03-06T15:44:53.642Z,99531.03
2023-03-06T15:47:24.935Z,99531.25
2023-03-06T15:49:56.852Z,99532.63
2023-03-06T15:52:28.304Z,99534.56
2023-03-06T15:54:59.571Z,99542.63
2023-03-06T15:57:31.337Z,99525.25
2023-03-06T16:00:02.659Z,99532.25
2023-03-06T16:02:34.197Z,99531.38
2023-03-06T16:05:15.288Z,99521.78
2023-03-06T16:07:46.904Z,99523.50
2023-03-06T16:10:23.759Z,99529.72
2023-03-06T16:13:04.146Z,99523.66
2023-03-06T16:15:40.597Z,99511.53
2023-03-06T16:18:12.514Z,99524.81
2023-03-06T16:20:44.216Z,99511.00
2023-03-06T16:23:16.343Z,99503.41
2023-03-06T16:25:49.135Z,99513.88
2023-03-06T16:28:20.627Z,99514.94
2023-03-06T16:30:52.060Z,99514.13
2023-03-06T16:33:23.603Z,99511.63
2023-03-06T16:35:54.888Z,99516.09
2023-03-06T16:38:26.265Z,99490.03
2023-03-06T16:40:57.524Z,99507.53
2023-03-06T16:43:28.800Z,99503.28
2023-03-06T16:46:05.364Z,99500.66
2023-03-06T16:48:36.680Z,99490.28
2023-03-06T16:51:09.204Z,99487.69
2023-03-06T16:53:40.485Z,99505.16
2023-03-06T16:56:13.101Z,99495.56
2023-03-06T16:58:44.884Z,99493.00
2023-03-06T17:01:18.878Z,99501.72
2023-03-06T17:03:50.234Z,99486.09
2023-03-06T17:06:22.779Z,99500.91
2023-03-06T17:08:54.321Z,99483.59
2023-03-06T17:11:26.027Z,99501.94
2023-03-06T17:13:57.510Z,99476.84
2023-03-06T17:16:28.785Z,99496.91
2023-03-06T17:19:02.122Z,99475.28
2023-03-06T17:21:35.282Z,99504.09
2023-03-06T17:24:07.751Z,99494.53
2023-03-06T17:26:40.018Z,99492.88
2023-03-06T17:29:12.011Z,99492.94
2023-03-06T17:31:43.303Z,99499.16
2023-03-06T17:34:14.774Z,99490.53
2023-03-06T17:36:46.056Z,99497.59
2023-03-06T17:39:17.328Z,99497.63
2023-03-06T17:41:48.992Z,99488.06
2023-03-06T17:44:20.360Z,99493.31
2023-03-06T17:46:52.134Z,99466.38
2023-03-06T17:49:25.097Z,99486.34
2023-03-06T17:51:58.156Z,99477.63
2023-03-06T17:54:33.229Z,99470.69
2023-03-06T17:57:05.645Z,99482.88
2023-03-06T17:59:37.041Z,99488.16
2023-03-06T18:02:09.653Z,99463.00
2023-03-06T18:04:41.383Z,99465.66
2023-03-06T18:07:12.819Z,99480.47
2023-03-06T18:09:44.087Z,99481.41
2023-03-06T18:12:15.656Z,99447.44
2023-03-06T18:14:48.501Z,99466.59
2023-03-06T18:17:19.757Z,99468.31
2023-03-06T18:19:57.909Z,99457.00
2023-03-06T18:22:29.317Z,99452.63
2023-03-06T18:25:00.841Z,99457.00
2023-03-06T18:27:33.304Z,99451.72
2023-03-06T18:30:05.143Z,99436.94
2023-03-06T18:32:36.453Z,99459.59
2023-03-06T18:35:09.367Z,99450.00
2023-03-06T18:37:40.646Z,99431.69
2023-03-06T18:40:13.001Z,99409.09
2023-03-06T18:42:44.320Z,99429.97
2023-03-06T18:45:15.627Z,99423.88
2023-03-06T18:47:46.885Z,99422.13
2023-03-06T18:50:18.276Z,99420.41
2023-03-06T18:52:49.602Z,99393.44
2023-03-06T18:55:21.430Z,99413.44
2023-03-06T18:57:52.711Z,99414.31
2023-03-06T19:00:24.005Z,99388.19
2023-03-06T19:02:55.440Z,99399.50
2023-03-06T19:05:26.694Z,99406.50
2023-03-06T19:07:58.231Z,99360.44
2023-03-06T19:10:31.102Z,99398.75
2023-03-06T19:13:02.838Z,99399.66
2023-03-06T19:15:34.736Z,99395.34
2023-03-06T19:18:06.005Z,99389.28
2023-03-06T19:20:37.339Z,99384.06
2023-03-06T19:23:09.125Z,99378.91
2023-03-06T19:25:40.391Z,99351.94
2023-03-06T19:28:11.676Z,99381.56
2023-03-06T19:30:43.065Z,99372.88
2023-03-06T19:33:15.448Z,99374.63
2023-03-06T19:35:47.660Z,99373.78
2023-03-06T19:38:18.956Z,99313.75
2023-03-06T19:40:50.605Z,99358.97
2023-03-06T19:43:22.899Z,99357.19
2023-03-06T19:45:54.959Z,99341.50
2023-03-06T19:48:26.247Z,99330.19
2023-03-06T19:51:03.127Z,99333.63
2023-03-06T19:53:37.737Z,99326.66
2023-03-06T19:56:13.892Z,99310.16
2023-03-06T19:58:45.330Z,99317.09
2023-03-06T20:01:19.230Z,99320.59
2023-03-06T20:03:56.028Z,99317.13
2023-03-06T20:06:30.143Z,99317.19
2023-03-06T20:09:03.696Z,99299.81
2023-03-06T20:11:35.247Z,99310.28
2023-03-06T20:14:08.582Z,99305.94
2023-03-06T20:16:39.924Z,99296.38
2023-03-06T20:19:11.705Z,99296.41
2023-03-06T20:21:43.412Z,99285.09
2023-03-06T20:24:16.725Z,99283.34
2023-03-06T20:26:50.769Z,99275.50
2023-03-06T20:29:22.270Z,99272.91
2023-03-06T20:31:56.489Z,99234.69
2023-03-06T20:34:27.954Z,99245.13
2023-03-06T20:36:59.245Z,99256.41
2023-03-06T20:39:30.536Z,99243.38
2023-03-06T20:42:03.684Z,99244.22
2023-03-06T20:44:35.002Z,99247.75
2023-03-06T20:47:06.292Z,99240.78
2023-03-06T20:49:38.357Z,99235.56
2023-03-06T20:52:09.669Z,99230.28
2023-03-06T20:54:41.018Z,99224.16
2023-03-06T20:57:12.386Z,99224.16
2023-03-06T20:59:44.997Z,99216.28
2023-03-06T21:02:16.443Z,99173.69
2023-03-06T21:04:47.931Z,99188.44
2023-03-06T21:07:19.740Z,99204.91
2023-03-06T21:09:52.111Z,99199.66
2023-03-06T21:12:23.440Z,99175.31
2023-03-06T21:14:54.852Z,99190.03
2023-03-06T21:17:27.360Z,99183.91
2023-03-06T21:19:58.755Z,99181.25
2023-03-06T21:22:30.228Z,99133.44
2023-03-06T21:25:01.519Z,99168.97
2023-03-06T21:27:32.878Z,99163.72
2023-03-06T21:30:04.936Z,99128.03
2023-03-06T21:32:36.373Z,99147.06
2023-03-06T21:35:07.845Z,99132.22
2023-03-06T21:37:39.257Z,99137.38
2023-03-06T21:40:11.592Z,99111.28
2023-03-06T21:42:42.888Z,99119.91
2023-03-06T21:45:14.215Z,99131.97
2023-03-06T21:47:48.120Z,99118.84
2023-03-06T21:50:19.395Z,99114.44
2023-03-06T21:52:51.417Z,99111.78
2023-03-06T21:55:23.019Z,99101.28
2023-03-06T21:57:54.983Z,99088.19
2023-03-06T22:00:26.295Z,99091.63
2023-03-06T22:02:57.591Z,99087.25
2023-03-06T22:05:29.995Z,99079.38
2023-03-06T22:08:01.300Z,99051.53
2023-03-06T22:10:32.542Z,99031.50
2023-03-06T22:13:03.800Z,99065.25
2023-03-06T22:15:35.060Z,99059.94
2023-03-06T22:18:06.637Z,99054.63
2023-03-06T22:20:39.397Z,99032.00
2023-03-06T22:23:11.047Z,99045.81
2023-03-06T22:25:42.351Z,99033.53
2023-03-06T22:28:14.908Z,99037.00
2023-03-06T22:30:46.195Z,99034.31
2023-03-06T22:33:17.460Z,99019.47
2023-03-06T22:35:48.757Z,99020.31
2023-03-06T22:38:20.172Z,99004.63
2023-03-06T22:40:51.452Z,99008.91
2023-03-06T22:43:23.015Z,98992.34
2023-03-06T22:45:54.362Z,98988.88
2023-03-06T22:48:25.717Z,98992.31
2023-03-06T22:51:02.340Z,98983.59
2023-03-06T22:53:33.742Z,98967.97
2023-03-06T22:56:07.862Z,98968.75
2023-03-06T22:58:40.176Z,98938.34
2023-03-06T23:01:19.635Z,98951.31
2023-03-06T23:03:56.638Z,98946.09
2023-03-06T23:06:36.192Z,98937.38
2023-03-06T23:09:16.984Z,98935.66
2023-03-06T23:11:49.415Z,98922.59
2023-03-06T23:14:21.061Z,98909.66
2023-03-06T23:16:52.528Z,98912.19
2023-03-06T23:19:23.798Z,98895.66
2023-03-06T23:21:55.148Z,98886.09
2023-03-06T23:24:26.473Z,98893.13
2023-03-06T23:26:57.768Z,98883.56
2023-03-06T23:29:29.025Z,98875.78
2023-03-06T23:32:00.325Z,98863.59
2023-03-06T23:34:31.627Z,98850.72
2023-03-06T23:37:03.075Z,98866.22
2023-03-06T23:39:34.450Z,98862.69
2023-03-06T23:42:06.003Z,98851.41
2023-03-06T23:44:37.293Z,98832.34
2023-03-06T23:47:08.563Z,98846.06
2023-03-06T23:49:39.987Z,98845.22
2023-03-06T23:52:11.337Z,98833.97
2023-03-06T23:54:42.745Z,98815.75
2023-03-06T23:57:14.119Z,98825.13
2023-03-06T23:59:45.513Z,98812.03
